Time;durP1;ratioP1;P1;durP2;ratioP2;P2;SDS_P1;SDS_P2;PMS_P1;PMS_P2;Temp;Humidity;BMP_temperature;BMP_pressure;BME280_temperature;BME280_humidity;BME280_pressure;Samples;Min_cycle;Max_cycle;Signal;HPM_P1;HPM_P2
2023/06/08 00:00:09;;;;;;;55.03;37.15;;;;;;;15.72;100.00;99342.78;5099116;28;20085;-64
2023/06/08 00:02:45;;;;;;;48.90;32.75;;;;;;;15.88;100.00;99346.25;5095724;28;20122;-64
2023/06/08 00:05:13;;;;;;;42.88;29.35;;;;;;;15.87;100.00;99346.53;5098013;28;20039;-64
2023/06/08 00:07:41;;;;;;;49.00;29.02;;;;;;;15.65;100.00;99347.63;5101963;28;20489;-64
2023/06/08 00:10:10;;;;;;;45.88;26.95;;;;;;;15.61;100.00;99341.16;5103770;28;20157;-64
2023/06/08 00:12:37;;;;;;;39.13;27.02;;;;;;;15.43;100.00;99339.84;5100157;28;20506;-65
2023/06/08 00:15:09;;;;;;;36.60;25.80;;;;;;;15.31;100.00;99337.41;5103101;28;20051;-64
2023/06/08 00:17:39;;;;;;;32.95;23.67;;;;;;;15.58;100.00;99338.19;5097384;28;20048;-64
2023/06/08 00:20:09;;;;;;;;;;;;;;;15.67;100.00;99336.53;5103391;28;20434;-64
2023/06/08 00:22:37;;;;;;;30.00;23.20;;;;;;;15.67;100.00;99328.44;5104540;28;19919;-64
2023/06/08 00:25:06;;;;;;;33.72;23.98;;;;;;;15.65;100.00;99330.59;5093751;28;20044;-64
2023/06/08 00:27:36;;;;;;;27.85;22.60;;;;;;;15.66;100.00;99333.03;5097680;28;20048;-64
2023/06/08 00:30:03;;;;;;;;;;;;;;;15.71;100.00;99334.97;5105809;28;20048;-64
2023/06/08 00:32:31;;;;;;;28.48;20.40;;;;;;;15.74;100.00;99335.19;5095392;28;19924;-64
2023/06/08 00:35:00;;;;;;;29.10;22.30;;;;;;;15.86;100.00;99332.22;5102133;28;20055;-64
2023/06/08 00:37:29;;;;;;;25.92;20.67;;;;;;;15.89;100.00;99323.53;5103259;28;20055;-64
2023/06/08 00:39:56;;;;;;;25.90;19.15;;;;;;;15.90;100.00;99321.66;5096954;28;20071;-64
2023/06/08 00:42:24;;;;;;;26.25;20.10;;;;;;;15.87;100.00;99324.91;5102445;28;20051;-64
2023/06/08 00:44:52;;;;;;;24.67;19.30;;;;;;;15.88;100.00;99321.13;5098019;28;20058;-64
2023/06/08 00:47:19;;;;;;;22.40;18.77;;;;;;;15.87;100.00;99317.59;5096214;28;20052;-64
2023/06/08 00:49:47;;;;;;;21.90;18.55;;;;;;;15.90;100.00;99316.25;5107832;28;20047;-64
2023/06/08 00:52:17;;;;;;;24.10;15.75;;;;;;;15.69;100.00;99321.72;5102947;28;20039;-64
2023/06/08 00:54:48;;;;;;;24.20;17.75;;;;;;;15.65;100.00;99320.63;5103724;28;20093;-64
2023/06/08 00:57:16;;;;;;;22.50;17.13;;;;;;;15.64;100.00;99313.59;5092803;28;20143;-64
2023/06/08 00:59:44;;;;;;;21.67;18.50;;;;;;;15.72;100.00;99309.53;5101241;28;20563;-64
2023/06/08 01:02:11;;;;;;;26.88;18.08;;;;;;;15.80;100.00;99314.41;5084856;28;20048;-64
2023/06/08 01:04:39;;;;;;;21.50;17.73;;;;;;;15.74;100.00;99319.00;5095219;28;20135;-64
2023/06/08 01:07:14;;;;;;;24.75;18.90;;;;;;;15.51;100.00;99319.56;5105492;28;20463;-63
2023/06/08 01:09:47;;;;;;;21.05;18.05;;;;;;;15.48;100.00;99325.50;5104808;28;20044;-64
2023/06/08 01:12:20;;;;;;;39.17;24.52;;;;;;;15.54;100.00;99335.22;5099478;28;20087;-64
2023/06/08 01:14:52;;;;;;;25.50;19.27;;;;;;;15.54;100.00;99330.63;5094820;28;20052;-64
2023/06/08 01:17:23;;;;;;;37.85;20.92;;;;;;;15.60;100.00;99326.03;5097481;28;20040;-64
2023/06/08 01:20:08;;;;;;;25.70;19.38;;;;;;;15.61;100.00;99329.53;5097437;28;20070;-64
2023/06/08 01:22:56;;;;;;;22.63;18.38;;;;;;;15.65;100.00;99317.91;5099352;28;20051;-64
2023/06/08 01:25:32;;;;;;;21.17;16.90;;;;;;;15.70;100.00;99322.50;5102518;28;20047;-64
2023/06/08 01:28:04;;;;;;;29.42;18.95;;;;;;;15.77;100.00;99316.84;5098631;28;20043;-63
2023/06/08 01:30:35;;;;;;;21.98;17.80;;;;;;;15.74;100.00;99313.59;5086231;28;20401;-64
2023/06/08 01:33:03;;;;;;;22.42;15.63;;;;;;;15.47;100.00;99310.38;5099155;28;20058;-64
2023/06/08 01:35:31;;;;;;;21.85;14.70;;;;;;;15.50;100.00;99301.72;5101235;28;20428;-64
2023/06/08 01:38:01;;;;;;;19.73;14.57;;;;;;;15.45;100.00;99304.44;5099655;28;20057;-64
2023/06/08 01:40:31;;;;;;;;;;;;;;;15.38;100.00;99312.03;5100471;28;20043;-64
2023/06/08 01:42:58;;;;;;;21.17;15.02;;;;;;;15.15;100.00;99302.56;5105054;28;20300;-64
2023/06/08 01:45:26;;;;;;;20.60;16.20;;;;;;;15.26;100.00;99312.31;5104404;28;20097;-64
2023/06/08 01:47:57;;;;;;;24.98;17.65;;;;;;;15.36;100.00;99306.09;5100490;28;20043;-64
2023/06/08 01:50:25;;;;;;;21.30;18.55;;;;;;;15.36;100.00;99303.38;5103821;28;20359;-63
2023/06/08 01:52:52;;;;;;;24.40;17.80;;;;;;;15.39;100.00;99302.81;5101267;28;20058;-64
2023/06/08 01:55:21;;;;;;;22.17;18.35;;;;;;;15.40;100.00;99301.75;5097302;28;20050;-63
2023/06/08 01:57:50;;;;;;;22.33;19.48;;;;;;;15.38;100.00;99301.22;5093705;28;20113;-63
2023/06/08 02:00:18;;;;;;;25.63;18.95;;;;;;;15.44;100.00;99294.72;5086339;28;20035;-63
2023/06/08 02:02:46;;;;;;;23.65;20.95;;;;;;;15.46;100.00;99293.38;5090898;28;20394;-63
2023/06/08 02:05:15;;;;;;;24.15;21.17;;;;;;;15.34;100.00;99290.13;5100104;28;20040;-63
2023/06/08 02:07:42;;;;;;;23.80;20.45;;;;;;;15.36;100.00;99289.88;5089719;28;20134;-63
2023/06/08 02:10:11;;;;;;;27.50;22.40;;;;;;;15.31;100.00;99293.38;5098725;28;20191;-64
2023/06/08 02:12:39;;;;;;;22.95;19.00;;;;;;;15.29;100.00;99290.94;5096501;28;20044;-64
2023/06/08 02:15:09;;;;;;;26.02;19.45;;;;;;;15.28;100.00;99289.34;5094981;28;20075;-63
2023/06/08 02:17:37;;;;;;;27.63;22.85;;;;;;;15.27;100.00;99292.31;5104156;28;20120;-63
2023/06/08 02:20:09;;;;;;;24.27;21.58;;;;;;;15.28;100.00;99294.75;5097244;28;20036;-63
2023/06/08 02:22:38;;;;;;;28.60;21.92;;;;;;;15.21;100.00;99291.50;5103759;28;20039;-63
2023/06/08 02:25:06;;;;;;;28.10;22.83;;;;;;;15.22;100.00;99295.81;5095320;28;20066;-63
2023/06/08 02:27:36;;;;;;;26.85;23.27;;;;;;;15.17;100.00;99295.81;5101690;28;20593;-63
2023/06/08 02:30:05;;;;;;;26.67;23.45;;;;;;;15.12;100.00;99295.81;5097475;28;20054;-64
2023/06/08 02:32:34;;;;;;;31.25;23.35;;;;;;;15.08;100.00;99308.25;5095510;28;20558;-64
2023/06/08 02:35:01;;;;;;;26.40;22.55;;;;;;;15.08;100.00;99310.97;5101486;28;20062;-63
2023/06/08 02:37:33;;;;;;;33.87;23.23;;;;;;;15.09;100.00;99307.97;5088776;28;20494;-63
2023/06/08 02:40:04;;;;;;;28.35;23.65;;;;;;;15.06;100.00;99313.13;5104460;28;20506;-64
2023/06/08 02:42:34;;;;;;;27.75;24.45;;;;;;;15.00;100.00;99314.19;5095444;28;20127;-63
2023/06/08 02:45:04;;;;;;;31.17;23.67;;;;;;;15.02;100.00;99306.63;5102615;28;20075;-65
2023/06/08 02:47:34;;;;;;;30.10;25.00;;;;;;;15.00;100.00;99300.69;5101475;28;20128;-63
2023/06/08 02:50:05;;;;;;;30.55;24.30;;;;;;;14.99;100.00;99304.47;5102664;28;20043;-63
2023/06/08 02:52:35;;;;;;;27.13;22.25;;;;;;;14.95;100.00;99300.69;5082815;28;20048;-63
2023/06/08 02:55:03;;;;;;;30.25;24.40;;;;;;;14.95;100.00;99300.69;5094497;28;20054;-64
2023/06/08 02:57:32;;;;;;;28.50;22.95;;;;;;;14.92;100.00;99298.53;5099633;28;20051;-64
2023/06/08 03:00:07;;;;;;;28.83;22.90;;;;;;;14.99;100.00;99291.78;5099946;28;20150;-63
2023/06/08 03:02:47;;;;;;;28.08;20.92;;;;;;;14.95;100.00;99292.59;5092768;28;20508;-63
2023/06/08 03:05:14;;;;;;;29.42;22.70;;;;;;;14.82;100.00;99294.72;5094216;28;20049;-63
2023/06/08 03:07:42;;;;;;;31.40;23.33;;;;;;;14.82;100.00;99299.31;5099272;28;20044;-63
2023/06/08 03:10:11;;;;;;;30.98;23.02;;;;;;;14.80;100.00;99294.22;5104395;28;20558;-65
2023/06/08 03:12:38;;;;;;;26.73;21.75;;;;;;;14.78;100.00;99290.97;5101741;28;20295;-63
2023/06/08 03:15:10;;;;;;;29.75;23.95;;;;;;;14.50;100.00;99288.72;5100208;28;20066;-63
2023/06/08 03:17:38;;;;;;;26.08;21.70;;;;;;;14.42;100.00;99293.56;5099406;28;20195;-63
2023/06/08 03:20:09;;;;;;;30.05;23.70;;;;;;;14.32;100.00;99287.34;5100451;28;20088;-63
2023/06/08 03:22:42;;;;;;;34.70;26.45;;;;;;;14.34;100.00;99283.28;5099571;28;20498;-63
2023/06/08 03:25:10;;;;;;;28.38;23.80;;;;;;;14.43;100.00;99279.00;5099026;28;20050;-63
2023/06/08 03:27:39;;;;;;;36.03;24.83;;;;;;;14.31;100.00;99272.25;5106281;28;20093;-64
2023/06/08 03:30:12;;;;;;;31.55;23.98;;;;;;;14.42;100.00;99277.38;5103485;28;20065;-63
2023/06/08 03:32:48;;;;;;;24.05;21.27;;;;;;;14.28;100.00;99276.28;5087386;28;20143;-63
2023/06/08 03:35:23;;;;;;;27.13;23.40;;;;;;;14.24;100.00;99280.56;5102135;28;20094;-63
2023/06/08 03:38:06;;;;;;;26.20;23.17;;;;;;;14.41;100.00;99275.78;5100426;28;20097;-63
2023/06/08 03:40:36;;;;;;;27.85;21.40;;;;;;;14.54;100.00;99273.66;5100938;28;20036;-63
2023/06/08 03:43:03;;;;;;;25.65;22.80;;;;;;;14.73;100.00;99274.78;5099166;28;20052;-63
2023/06/08 03:45:31;;;;;;;32.13;22.38;;;;;;;14.97;100.00;99282.34;5098535;28;20222;-63
2023/06/08 03:47:59;;;;;;;21.13;18.27;;;;;;;15.38;100.00;99276.91;5106199;28;20113;-63
2023/06/08 03:50:28;;;;;;;25.30;22.60;;;;;;;15.34;100.00;99278.53;5102236;28;20039;-63
2023/06/08 03:52:56;;;;;;;24.08;20.08;;;;;;;15.74;100.00;99273.06;5101034;28;20040;-63
2023/06/08 03:55:26;;;;;;;24.88;19.50;;;;;;;16.23;100.00;99287.75;5095868;28;20052;-63
2023/06/08 03:57:54;;;;;;;23.80;18.63;;;;;;;16.50;98.03;99278.38;5100804;28;20054;-63
2023/06/08 04:00:22;;;;;;;24.13;19.15;;;;;;;15.73;100.00;99290.38;5083969;28;20429;-63
2023/06/08 04:02:53;;;;;;;23.73;19.30;;;;;;;15.85;100.00;99291.94;5102315;28;20123;-63
2023/06/08 04:05:24;;;;;;;21.92;16.55;;;;;;;16.52;100.00;99287.81;5088830;28;20032;-63
2023/06/08 04:07:53;;;;;;;23.48;17.77;;;;;;;16.60;97.86;99284.56;5095878;28;20134;-63
2023/06/08 04:10:20;;;;;;;22.48;17.98;;;;;;;17.45;94.85;99283.34;5102422;28;20039;-63
2023/06/08 04:12:51;;;;;;;23.33;16.30;;;;;;;17.72;89.26;99289.28;5101582;28;20044;-63
2023/06/08 04:15:18;;;;;;;20.92;16.80;;;;;;;17.98;90.45;99292.56;5099369;28;20055;-64
2023/06/08 04:17:48;;;;;;;19.80;14.98;;;;;;;18.81;84.00;99293.09;5101635;27;20043;-62
2023/06/08 04:20:18;;;;;;;22.00;15.68;;;;;;;19.11;83.70;99289.88;5105320;28;20565;-63
2023/06/08 04:22:46;;;;;;;17.48;14.45;;;;;;;19.52;79.63;99286.44;5104822;28;20062;-64
2023/06/08 04:25:16;;;;;;;20.15;15.98;;;;;;;19.76;77.84;99296.34;5102060;28;20051;-62
2023/06/08 04:27:45;;;;;;;13.10;11.50;;;;;;;19.81;78.09;99288.91;5104452;28;20395;-62
2023/06/08 04:30:13;;;;;;;16.08;13.77;;;;;;;20.18;75.69;99291.72;5095830;28;20136;-62
2023/06/08 04:32:41;;;;;;;18.55;13.95;;;;;;;20.38;74.45;99290.47;5091267;28;20054;-64
2023/06/08 04:35:09;;;;;;;19.42;13.45;;;;;;;21.28;69.91;99291.34;5095526;28;20050;-64
2023/06/08 04:37:38;;;;;;;16.23;11.55;;;;;;;20.91;71.33;99281.63;5088116;28;20044;-64
2023/06/08 04:40:07;;;;;;;16.02;12.10;;;;;;;21.47;69.70;99295.81;5105324;28;20402;-62
2023/06/08 04:42:39;;;;;;;15.53;11.83;;;;;;;21.67;68.43;99298.00;5095328;28;20589;-64
2023/06/08 04:45:08;;;;;;;16.00;12.50;;;;;;;21.90;67.25;99289.72;5096462;28;20292;-62
2023/06/08 04:47:36;;;;;;;17.17;12.10;;;;;;;21.71;67.59;99293.50;5099993;28;20109;-62
2023/06/08 04:50:05;;;;;;;18.27;11.93;;;;;;;22.60;63.04;99302.41;5103558;28;20299;-62
2023/06/08 04:52:40;;;;;;;20.52;11.80;;;;;;;21.99;66.05;99296.03;5093541;28;20434;-62
2023/06/08 04:55:09;;;;;;;15.30;12.20;;;;;;;22.00;66.57;99300.34;5098945;28;20049;-62
2023/06/08 04:57:40;;;;;;;;;;;;;;;22.73;63.90;99299.84;5101723;28;20062;-62
2023/06/08 05:00:09;;;;;;;13.13;10.80;;;;;;;23.31;61.13;99303.97;5103627;28;20014;-64
2023/06/08 05:02:37;;;;;;;14.07;11.10;;;;;;;24.27;59.28;99301.69;5096680;28;20083;-63
2023/06/08 05:05:08;;;;;;;15.07;10.63;;;;;;;24.13;58.68;99301.13;5088777;28;20048;-62
2023/06/08 05:07:36;;;;;;;15.98;11.57;;;;;;;24.09;58.11;99300.19;5100968;28;20543;-62
2023/06/08 05:10:05;;;;;;;17.60;11.83;;;;;;;24.48;56.94;99300.94;5098002;28;20144;-62
2023/06/08 05:12:38;;;;;;;12.47;11.27;;;;;;;24.14;58.33;99294.53;5096359;28;20040;-62
2023/06/08 05:15:11;;;;;;;16.20;11.80;;;;;;;24.30;57.89;99301.00;5102696;28;20364;-64
2023/06/08 05:17:41;;;;;;;16.58;11.70;;;;;;;24.75;57.22;99294.91;5095501;28;20043;-63
2023/06/08 05:20:09;;;;;;;16.10;11.95;;;;;;;24.87;55.28;99301.59;5096672;28;20043;-62
2023/06/08 05:22:39;;;;;;;12.15;10.73;;;;;;;25.32;54.55;99298.13;5097048;28;20387;-62
2023/06/08 05:25:08;;;;;;;13.73;11.00;;;;;;;25.89;53.00;99296.53;5099745;28;20043;-62
2023/06/08 05:27:38;;;;;;;15.65;11.55;;;;;;;25.17;55.30;99294.09;5100633;28;20036;-62
2023/06/08 05:30:08;;;;;;;14.40;11.30;;;;;;;25.07;55.54;99298.03;5101820;28;20044;-62
2023/06/08 05:32:38;;;;;;;16.77;11.40;;;;;;;25.55;53.71;99295.78;5105121;28;20325;-62
2023/06/08 05:35:06;;;;;;;14.77;11.27;;;;;;;25.18;54.96;99295.69;5099534;28;20043;-62
2023/06/08 05:37:34;;;;;;;13.15;11.65;;;;;;;25.31;53.37;99300.06;5096278;28;20043;-62
2023/06/08 05:40:02;;;;;;;13.05;11.25;;;;;;;24.55;56.23;99301.19;5101188;28;20473;-62
2023/06/08 05:42:30;;;;;;;13.10;10.88;;;;;;;25.66;53.93;99296.13;5092108;28;20070;-62
2023/06/08 05:44:57;;;;;;;12.95;11.13;;;;;;;25.58;53.80;99287.63;5100619;28;20043;-62
2023/06/08 05:47:26;;;;;;;16.02;11.18;;;;;;;26.30;50.85;99294.66;5098818;28;20055;-62
2023/06/08 05:49:54;;;;;;;14.20;10.88;;;;;;;26.04;51.55;99282.09;5104367;28;20105;-62
2023/06/08 05:52:21;;;;;;;15.05;11.07;;;;;;;25.99;52.57;99291.38;5101480;28;20512;-62
2023/06/08 05:54:50;;;;;;;12.15;10.95;;;;;;;25.99;51.82;99285.88;5094257;28;20532;-63
2023/06/08 05:57:18;;;;;;;19.25;11.23;;;;;;;26.68;50.25;99291.50;5099923;28;20048;-63
2023/06/08 05:59:45;;;;;;;15.43;11.35;;;;;;;25.75;53.15;99291.34;5099967;28;20401;-63
2023/06/08 06:02:14;;;;;;;12.32;10.15;;;;;;;27.16;49.43;99292.47;5097036;28;20802;-62
2023/06/08 06:04:43;;;;;;;13.25;9.95;;;;;;;26.67;50.46;99292.66;5101967;28;20485;-64
2023/06/08 06:07:10;;;;;;;;;;;;;;;25.65;52.60;99305.50;5100178;28;20474;-62
2023/06/08 06:09:37;;;;;;;18.95;11.18;;;;;;;25.02;54.56;99300.19;5101600;28;19955;-65
2023/06/08 06:12:07;;;;;;;12.77;10.15;;;;;;;26.23;51.68;99290.56;5095531;28;20043;-64
2023/06/08 06:14:38;;;;;;;13.88;10.73;;;;;;;27.32;49.02;99296.06;5097410;28;20076;-64
2023/06/08 06:17:06;;;;;;;16.65;11.15;;;;;;;26.76;49.76;99290.56;5095883;28;20036;-64
2023/06/08 06:19:36;;;;;;;15.13;10.10;;;;;;;27.15;48.83;99292.78;5099625;28;20044;-64
2023/06/08 06:22:06;;;;;;;13.75;9.90;;;;;;;26.55;51.39;99298.19;5096899;28;20050;-64
2023/06/08 06:24:35;;;;;;;12.32;10.13;;;;;;;26.62;51.72;99301.16;5102047;28;20060;-64
2023/06/08 06:27:03;;;;;;;16.08;10.52;;;;;;;26.08;52.65;99290.44;5097209;28;20040;-64
2023/06/08 06:29:33;;;;;;;11.52;8.75;;;;;;;26.10;52.37;99293.66;5099641;28;20645;-64
2023/06/08 06:32:01;;;;;;;13.63;10.70;;;;;;;26.82;50.46;99299.38;5099595;28;20094;-64
2023/06/08 06:34:28;;;;;;;12.88;9.50;;;;;;;28.04;47.35;99294.31;5102340;28;20143;-64
2023/06/08 06:36:56;;;;;;;14.50;9.63;;;;;;;28.00;47.51;99293.41;5093160;28;20043;-64
2023/06/08 06:39:25;;;;;;;12.30;8.67;;;;;;;27.35;47.21;99302.00;5097159;28;20040;-61
2023/06/08 06:41:53;;;;;;;11.32;8.45;;;;;;;27.21;47.91;99297.72;5098057;28;20302;-62
2023/06/08 06:44:23;;;;;;;12.52;8.38;;;;;;;27.31;48.77;99299.16;5096864;28;20036;-62
2023/06/08 06:46:51;;;;;;;9.10;8.00;;;;;;;27.47;46.70;99304.69;5103183;28;20077;-64
2023/06/08 06:49:18;;;;;;;9.45;8.00;;;;;;;26.95;47.78;99308.34;5095541;28;20135;-64
2023/06/08 06:51:45;;;;;;;9.68;7.82;;;;;;;26.56;47.72;99310.75;5105086;28;20044;-64
2023/06/08 06:54:13;;;;;;;8.00;6.72;;;;;;;28.01;45.34;99308.78;5100171;28;20489;-64
2023/06/08 06:56:44;;;;;;;10.68;6.93;;;;;;;26.74;47.22;99308.56;5097272;28;20513;-64
2023/06/08 06:59:12;;;;;;;10.93;7.40;;;;;;;29.01;42.96;99317.31;5099010;28;20489;-64
2023/06/08 07:01:42;;;;;;;9.82;6.43;;;;;;;26.49;47.27;99307.81;5096408;28;20067;-64
2023/06/08 07:04:16;;;;;;;7.43;6.38;;;;;;;27.77;44.58;99302.28;5090695;28;20040;-64
2023/06/08 07:06:47;;;;;;;13.43;7.00;;;;;;;28.35;43.38;99312.72;5103094;28;20039;-63
2023/06/08 07:09:14;;;;;;;11.32;6.95;;;;;;;28.14;44.10;99305.56;5099581;28;20047;-64
2023/06/08 07:11:43;;;;;;;11.35;6.97;;;;;;;29.50;41.48;99301.28;5095506;28;20364;-64
2023/06/08 07:14:11;;;;;;;8.70;7.35;;;;;;;26.14;46.97;99313.81;5100385;28;20059;-64
2023/06/08 07:16:42;;;;;;;12.40;7.55;;;;;;;26.64;48.54;99304.34;5098617;28;20070;-64
2023/06/08 07:19:10;;;;;;;12.85;8.18;;;;;;;26.83;47.07;99296.28;5100822;28;20048;-64
2023/06/08 07:21:40;;;;;;;11.20;8.00;;;;;;;25.54;49.86;99300.47;5093762;28;20500;-64
2023/06/08 07:24:08;;;;;;;12.18;7.40;;;;;;;27.17;46.94;99307.00;5098183;28;20120;-62
2023/06/08 07:26:36;;;;;;;13.20;7.07;;;;;;;28.76;43.36;99304.97;5098769;28;20039;-62
2023/06/08 07:29:05;;;;;;;11.30;6.88;;;;;;;29.00;42.69;99310.19;5095612;28;20072;-61
2023/06/08 07:31:34;;;;;;;8.80;7.13;;;;;;;28.49;43.54;99306.78;5099910;28;20420;-64
2023/06/08 07:34:03;;;;;;;7.50;6.22;;;;;;;29.00;42.84;99309.38;5100360;28;20044;-62
2023/06/08 07:36:49;;;;;;;8.75;6.35;;;;;;;28.95;42.08;99299.44;5103133;28;20051;-64
2023/06/08 07:39:17;;;;;;;8.68;6.18;;;;;;;28.91;41.42;99306.88;5100729;28;20048;-63
2023/06/08 07:41:44;;;;;;;8.50;6.35;;;;;;;27.53;44.32;99300.50;5102305;28;20047;-62
2023/06/08 07:44:14;;;;;;;7.93;6.50;;;;;;;27.12;45.64;99305.31;5098592;28;20043;-63
2023/06/08 07:46:44;;;;;;;9.63;6.22;;;;;;;28.69;43.49;99297.34;5098840;28;20068;-62
2023/06/08 07:49:11;;;;;;;11.50;6.20;;;;;;;27.87;44.15;99303.75;5100097;28;20460;-62
2023/06/08 07:51:39;;;;;;;10.43;6.50;;;;;;;28.22;42.82;99306.53;5098662;28;20048;-62
2023/06/08 07:54:07;;;;;;;8.30;6.60;;;;;;;29.29;40.72;99299.72;5089596;28;20143;-62
2023/06/08 07:56:35;;;;;;;8.70;6.38;;;;;;;27.87;43.18;99309.25;5099538;28;20113;-62
2023/06/08 07:59:05;;;;;;;11.63;6.70;;;;;;;28.14;43.12;99296.53;5107644;28;20036;-62
2023/06/08 08:01:35;;;;;;;9.95;7.00;;;;;;;25.41;48.33;99296.09;5102394;28;20096;-64
2023/06/08 08:04:02;;;;;;;9.00;7.13;;;;;;;27.40;45.34;99296.25;5100426;28;20117;-64
2023/06/08 08:06:30;;;;;;;10.85;6.10;;;;;;;28.95;42.99;99295.88;5097406;28;20312;-64
2023/06/08 08:09:00;;;;;;;9.63;5.97;;;;;;;29.01;41.85;99295.25;5102853;28;20416;-63
2023/06/08 08:11:28;;;;;;;9.02;6.22;;;;;;;27.66;44.22;99301.25;5101388;28;20040;-63
2023/06/08 08:13:56;;;;;;;9.88;6.35;;;;;;;27.75;45.17;99299.88;5098421;28;20036;-64
2023/06/08 08:16:25;;;;;;;9.48;6.35;;;;;;;28.17;43.79;99298.56;5102901;28;20500;-64
2023/06/08 08:18:55;;;;;;;10.70;6.97;;;;;;;25.39;49.37;99298.38;5095588;28;20044;-64
2023/06/08 08:21:23;;;;;;;7.30;6.53;;;;;;;25.93;48.52;99306.44;5108369;28;20063;-64
2023/06/08 08:23:50;;;;;;;9.70;7.18;;;;;;;27.85;45.00;99297.78;5104273;28;20047;-64
2023/06/08 08:26:21;;;;;;;9.20;7.07;;;;;;;24.99;50.22;99298.91;5098065;28;20529;-64
2023/06/08 08:28:48;;;;;;;7.10;6.40;;;;;;;26.74;47.79;99295.63;5104853;28;20086;-64
2023/06/08 08:31:16;;;;;;;11.75;6.70;;;;;;;27.55;46.25;99287.19;5102523;27;20040;-63
2023/06/08 08:33:46;;;;;;;11.73;6.65;;;;;;;28.15;44.17;99287.88;5102306;28;20041;-63
2023/06/08 08:36:15;;;;;;;8.23;6.63;;;;;;;27.27;45.95;99299.06;5103857;28;20059;-63
2023/06/08 08:38:42;;;;;;;;;;;;;;;26.14;48.02;99291.81;5103597;28;20051;-64
2023/06/08 08:41:11;;;;;;;8.15;6.80;;;;;;;26.44;47.79;99289.59;5100079;28;20303;-63
2023/06/08 08:43:41;;;;;;;8.48;6.30;;;;;;;28.22;44.08;99280.94;5097889;28;20043;-63
2023/06/08 08:46:09;;;;;;;8.77;6.05;;;;;;;29.13;42.94;99274.19;5107727;28;20132;-63
2023/06/08 08:48:40;;;;;;;8.68;6.10;;;;;;;27.60;45.10;99286.94;5103870;28;20039;-64
2023/06/08 08:51:09;;;;;;;8.55;6.32;;;;;;;27.53;44.98;99289.50;5101503;28;20135;-62
2023/06/08 08:53:40;;;;;;;10.60;6.53;;;;;;;27.17;45.72;99272.03;5102772;28;20044;-64
2023/06/08 08:56:09;;;;;;;10.55;6.70;;;;;;;26.25;47.61;99281.94;5094555;28;20048;-62
2023/06/08 08:58:36;;;;;;;13.63;7.15;;;;;;;24.78;51.40;99281.69;5098207;28;20499;-62
2023/06/08 09:01:05;;;;;;;12.40;7.00;;;;;;;26.13;49.17;99279.22;5107344;28;20044;-62
2023/06/08 09:03:32;;;;;;;10.73;6.75;;;;;;;26.17;47.93;99277.41;5106479;28;20044;-62
2023/06/08 09:06:09;;;;;;;8.15;6.07;;;;;;;27.03;47.37;99266.16;5098017;28;20441;-62
2023/06/08 09:08:48;;;;;;;9.07;6.05;;;;;;;26.37;48.27;99278.38;5097339;28;20050;-62
2023/06/08 09:11:16;;;;;;;9.40;6.25;;;;;;;25.47;50.56;99272.78;5096387;28;20040;-62
2023/06/08 09:13:44;;;;;;;8.57;6.07;;;;;;;27.62;46.17;99272.81;5098140;28;20074;-64
2023/06/08 09:16:14;;;;;;;9.23;6.90;;;;;;;27.09;46.45;99270.25;5096963;28;20131;-63
2023/06/08 09:18:42;;;;;;;9.43;6.00;;;;;;;26.71;47.70;99265.25;5098267;28;20064;-63
2023/06/08 09:21:23;;;;;;;10.32;6.60;;;;;;;26.74;48.45;99268.13;5099685;28;20525;-63
2023/06/08 09:24:08;;;;;;;8.45;6.53;;;;;;;27.18;46.71;99267.34;5094390;28;20126;-63
2023/06/08 09:26:36;;;;;;;8.23;6.22;;;;;;;27.41;46.48;99264.81;5099875;28;20113;-64
2023/06/08 09:29:04;;;;;;;7.72;6.03;;;;;;;26.50;47.86;99270.91;5101154;28;20130;-63
2023/06/08 09:31:39;;;;;;;8.57;6.50;;;;;;;25.89;49.79;99267.13;5096711;28;20059;-63
2023/06/08 09:34:08;;;;;;;8.77;6.07;;;;;;;27.24;46.38;99261.25;5098888;28;20079;-63
2023/06/08 09:36:37;;;;;;;8.80;5.80;;;;;;;27.97;46.05;99259.13;5099207;28;20490;-63
2023/06/08 09:39:09;;;;;;;11.13;6.05;;;;;;;27.34;47.15;99259.94;5105857;28;20460;-64
2023/06/08 09:41:38;;;;;;;9.88;6.50;;;;;;;26.70;46.73;99258.16;5099081;28;20036;-63
2023/06/08 09:44:20;;;;;;;8.10;5.68;;;;;;;26.03;49.05;99259.34;5095303;28;20108;-63
2023/06/08 09:46:48;;;;;;;9.27;6.32;;;;;;;25.28;49.66;99256.06;5094833;28;20040;-63
2023/06/08 09:49:16;;;;;;;7.25;5.68;;;;;;;25.61;49.33;99259.53;5099933;28;20050;-63
2023/06/08 09:51:47;;;;;;;10.63;6.65;;;;;;;23.67;55.53;99248.06;5104239;28;20112;-63
2023/06/08 09:54:17;;;;;;;9.75;6.25;;;;;;;26.22;49.77;99246.94;5102735;28;20047;-63
2023/06/08 09:56:48;;;;;;;8.80;5.90;;;;;;;26.08;48.75;99246.50;5089816;28;20343;-63
2023/06/08 09:59:17;;;;;;;8.23;6.53;;;;;;;26.50;48.17;99248.94;5103863;28;20035;-63
2023/06/08 10:01:50;;;;;;;9.57;6.63;;;;;;;25.93;49.57;99245.25;5095800;28;20100;-63
2023/06/08 10:04:31;;;;;;;8.70;6.35;;;;;;;25.24;50.58;99249.66;5101751;28;20062;-64
2023/06/08 10:07:02;;;;;;;11.73;6.65;;;;;;;25.10;51.02;99245.25;5095133;28;20501;-63
2023/06/08 10:09:31;;;;;;;8.60;6.40;;;;;;;25.17;51.88;99244.72;5097613;28;20055;-63
2023/06/08 10:11:59;;;;;;;9.68;6.35;;;;;;;26.51;48.02;99242.28;5099773;28;20043;-63
2023/06/08 10:14:27;;;;;;;7.35;6.43;;;;;;;24.88;51.43;99243.69;5099859;27;20044;-63
2023/06/08 10:16:55;;;;;;;10.15;6.25;;;;;;;24.09;53.46;99242.69;5094581;28;20457;-63
2023/06/08 10:19:22;;;;;;;10.55;6.40;;;;;;;25.80;50.08;99238.94;5098470;28;20490;-63
2023/06/08 10:21:51;;;;;;;9.95;6.63;;;;;;;26.19;49.49;99242.16;5105602;28;20401;-63
2023/06/08 10:24:19;;;;;;;8.88;6.68;;;;;;;26.70;48.80;99242.47;5106144;28;20502;-63
2023/06/08 10:26:50;;;;;;;11.10;6.90;;;;;;;25.27;50.92;99244.28;5102372;28;20034;-63
2023/06/08 10:29:17;;;;;;;9.45;6.82;;;;;;;25.97;49.62;99233.25;5101455;28;20040;-63
2023/06/08 10:31:48;;;;;;;10.18;6.75;;;;;;;25.77;50.39;99221.22;5095145;28;20043;-63
2023/06/08 10:34:16;;;;;;;8.20;6.43;;;;;;;26.31;50.03;99236.63;5086018;28;20342;-63
2023/06/08 10:36:48;;;;;;;14.37;6.43;;;;;;;27.58;46.27;99231.41;5100057;28;20035;-64
2023/06/08 10:39:16;;;;;;;8.02;6.20;;;;;;;28.58;43.87;99225.47;5093387;28;20434;-64
2023/06/08 10:41:54;;;;;;;7.75;6.13;;;;;;;27.87;44.76;99224.69;5100482;28;20214;-61
2023/06/08 10:44:26;;;;;;;8.98;6.03;;;;;;;27.70;46.09;99227.78;5102577;28;20044;-62
2023/06/08 10:47:02;;;;;;;8.13;6.32;;;;;;;25.90;49.73;99216.56;5097515;28;20035;-64
2023/06/08 10:49:32;;;;;;;8.43;6.38;;;;;;;25.27;51.38;99216.06;5104147;28;20052;-64
2023/06/08 10:52:00;;;;;;;10.32;6.63;;;;;;;25.03;51.91;99206.59;5097880;28;20043;-63
2023/06/08 10:54:27;;;;;;;10.02;6.53;;;;;;;25.21;51.37;99201.78;5099259;28;20719;-62
2023/06/08 10:56:58;;;;;;;10.98;6.93;;;;;;;26.04;49.36;99206.00;5091712;28;20044;-64
2023/06/08 10:59:34;;;;;;;9.10;6.43;;;;;;;25.48;49.83;99203.03;5095750;28;20372;-63
2023/06/08 11:02:03;;;;;;;10.27;6.57;;;;;;;26.23;48.24;99196.34;5099883;28;20044;-64
2023/06/08 11:04:31;;;;;;;8.25;6.43;;;;;;;26.30;49.19;99196.56;5098878;28;20134;-64
2023/06/08 11:07:02;;;;;;;7.55;6.22;;;;;;;25.66;51.06;99191.81;5105829;28;20464;-64
2023/06/08 11:09:33;;;;;;;9.82;6.70;;;;;;;25.70;51.33;99192.75;5103513;28;20071;-63
2023/06/08 11:12:05;;;;;;;9.50;7.10;;;;;;;25.89;50.90;99193.00;5100650;28;20100;-63
2023/06/08 11:14:33;;;;;;;8.75;7.28;;;;;;;26.12;49.20;99189.75;5101507;28;20075;-63
2023/06/08 11:17:00;;;;;;;9.48;6.97;;;;;;;26.94;47.75;99188.53;5098405;28;20144;-63
2023/06/08 11:19:29;;;;;;;12.27;6.72;;;;;;;26.38;49.30;99181.88;5097842;28;20055;-62
2023/06/08 11:21:57;;;;;;;9.73;6.50;;;;;;;27.79;46.16;99180.78;5100608;28;20619;-62
2023/06/08 11:24:27;;;;;;;8.93;5.97;;;;;;;26.64;46.92;99188.91;5096243;28;20044;-64
2023/06/08 11:26:57;;;;;;;9.95;6.70;;;;;;;25.70;49.88;99179.81;5098852;28;20557;-63
2023/06/08 11:29:27;;;;;;;8.20;6.00;;;;;;;26.77;47.76;99173.94;5099544;28;20452;-62
2023/06/08 11:31:55;;;;;;;7.55;6.13;;;;;;;26.50;46.34;99166.50;5099285;28;20039;-62